sensor_id;sensor_type;location;lat;lon;timestamp;pressure;altitude;pressure_sealevel;temperature;humidity
43298;BME280;28892;55.640;37.532;2024-03-29T00:00:55;98030.84;;;6.55;48.08
43298;BME280;28892;55.640;37.532;2024-03-29T00:03:21;98042.31;;;6.47;48.59
43298;BME280;28892;55.640;37.532;2024-03-29T00:05:46;98040.44;;;6.26;48.99
43298;BME280;28892;55.640;37.532;2024-03-29T00:08:12;98033.09;;;6.73;47.44
43298;BME280;28892;55.640;37.532;2024-03-29T00:10:38;98025.91;;;6.67;47.77
43298;BME280;28892;55.640;37.532;2024-03-29T00:13:04;98029.19;;;6.91;47.12
43298;BME280;28892;55.640;37.532;2024-03-29T00:15:33;98027.06;;;6.79;47.57
43298;BME280;28892;55.640;37.532;2024-03-29T00:18:01;98029.00;;;6.70;48.04
43298;BME280;28892;55.640;37.532;2024-03-29T00:20:26;98023.13;;;6.53;48.45
43298;BME280;28892;55.640;37.532;2024-03-29T00:23:03;98025.72;;;6.32;48.69
43298;BME280;28892;55.640;37.532;2024-03-29T00:25:32;98015.75;;;6.64;48.02
43298;BME280;28892;55.640;37.532;2024-03-29T00:28:06;98006.22;;;6.63;47.91
43298;BME280;28892;55.640;37.532;2024-03-29T00:30:32;98008.88;;;6.84;47.34
43298;BME280;28892;55.640;37.532;2024-03-29T00:32:58;98005.34;;;6.40;48.88
43298;BME280;28892;55.640;37.532;2024-03-29T00:35:42;97997.94;;;6.88;47.20
43298;BME280;28892;55.640;37.532;2024-03-29T00:38:08;97989.09;;;6.95;47.61
43298;BME280;28892;55.640;37.532;2024-03-29T00:40:35;97995.91;;;6.68;48.54
43298;BME280;28892;55.640;37.532;2024-03-29T00:43:02;97989.16;;;6.80;48.39
43298;BME280;28892;55.640;37.532;2024-03-29T00:45:27;97993.84;;;6.85;48.37
43298;BME280;28892;55.640;37.532;2024-03-29T00:47:54;97991.66;;;7.10;47.20
43298;BME280;28892;55.640;37.532;2024-03-29T00:50:19;97990.50;;;7.41;46.35
43298;BME280;28892;55.640;37.532;2024-03-29T00:52:51;97984.69;;;7.53;45.92
43298;BME280;28892;55.640;37.532;2024-03-29T00:55:17;97984.44;;;7.76;45.24
43298;BME280;28892;55.640;37.532;2024-03-29T00:57:45;97971.09;;;7.91;45.48
43298;BME280;28892;55.640;37.532;2024-03-29T01:00:14;97976.41;;;7.98;45.09
43298;BME280;28892;55.640;37.532;2024-03-29T01:02:42;97969.25;;;7.85;45.12
43298;BME280;28892;55.640;37.532;2024-03-29T01:05:11;97975.13;;;7.87;45.34
43298;BME280;28892;55.640;37.532;2024-03-29T01:07:36;97965.13;;;7.76;44.95
43298;BME280;28892;55.640;37.532;2024-03-29T01:10:02;97962.53;;;7.89;45.43
43298;BME280;28892;55.640;37.532;2024-03-29T01:12:36;97960.91;;;7.88;44.94
43298;BME280;28892;55.640;37.532;2024-03-29T01:15:10;97958.00;;;7.69;45.38
43298;BME280;28892;55.640;37.532;2024-03-29T01:17:44;97958.78;;;7.70;45.19
43298;BME280;28892;55.640;37.532;2024-03-29T01:20:13;97954.72;;;7.67;45.38
43298;BME280;28892;55.640;37.532;2024-03-29T01:22:38;97951.16;;;7.82;45.49
43298;BME280;28892;55.640;37.532;2024-03-29T01:25:04;97941.81;;;7.86;45.04
43298;BME280;28892;55.640;37.532;2024-03-29T01:27:33;97942.97;;;7.70;45.97
43298;BME280;28892;55.640;37.532;2024-03-29T01:30:02;97951.06;;;7.68;45.70
43298;BME280;28892;55.640;37.532;2024-03-29T01:32:29;97948.47;;;7.40;46.96
43298;BME280;28892;55.640;37.532;2024-03-29T01:34:58;97941.50;;;7.32;46.97
43298;BME280;28892;55.640;37.532;2024-03-29T01:37:24;97936.84;;;7.34;46.72
43298;BME280;28892;55.640;37.532;2024-03-29T01:39:52;97928.59;;;6.87;48.60
43298;BME280;28892;55.640;37.532;2024-03-29T01:42:18;97925.13;;;7.08;47.87
43298;BME280;28892;55.640;37.532;2024-03-29T01:44:46;97930.16;;;6.81;48.82
43298;BME280;28892;55.640;37.532;2024-03-29T01:47:13;97920.50;;;6.67;49.34
43298;BME280;28892;55.640;37.532;2024-03-29T01:49:41;97921.03;;;6.19;50.55
43298;BME280;28892;55.640;37.532;2024-03-29T01:52:09;97910.59;;;6.47;50.15
43298;BME280;28892;55.640;37.532;2024-03-29T01:54:37;97909.22;;;6.51;50.13
43298;BME280;28892;55.640;37.532;2024-03-29T01:57:03;97906.22;;;6.54;49.96
43298;BME280;28892;55.640;37.532;2024-03-29T01:59:29;97899.69;;;6.50;50.19
43298;BME280;28892;55.640;37.532;2024-03-29T02:01:57;97900.25;;;6.24;50.86
43298;BME280;28892;55.640;37.532;2024-03-29T02:04:26;97891.09;;;6.63;49.45
43298;BME280;28892;55.640;37.532;2024-03-29T02:06:52;97888.66;;;6.40;50.64
43298;BME280;28892;55.640;37.532;2024-03-29T02:09:20;97887.66;;;6.41;50.42
43298;BME280;28892;55.640;37.532;2024-03-29T02:11:46;97882.38;;;6.41;50.22
43298;BME280;28892;55.640;37.532;2024-03-29T02:14:11;97882.13;;;6.57;50.12
43298;BME280;28892;55.640;37.532;2024-03-29T02:16:37;97874.50;;;6.41;50.00
43298;BME280;28892;55.640;37.532;2024-03-29T02:19:07;97876.78;;;6.51;50.34
43298;BME280;28892;55.640;37.532;2024-03-29T02:21:33;97873.47;;;6.20;51.34
43298;BME280;28892;55.640;37.532;2024-03-29T02:24:11;97864.44;;;6.08;51.67
43298;BME280;28892;55.640;37.532;2024-03-29T02:26:56;97864.28;;;6.60;49.67
43298;BME280;28892;55.640;37.532;2024-03-29T02:29:21;97859.97;;;6.74;49.64
43298;BME280;28892;55.640;37.532;2024-03-29T02:31:47;97871.28;;;6.46;50.51
43298;BME280;28892;55.640;37.532;2024-03-29T02:34:13;97861.88;;;6.14;51.26
43298;BME280;28892;55.640;37.532;2024-03-29T02:36:38;97868.06;;;6.28;50.91
43298;BME280;28892;55.640;37.532;2024-03-29T02:39:04;97856.09;;;6.48;50.34
43298;BME280;28892;55.640;37.532;2024-03-29T02:41:29;97864.63;;;6.50;50.43
43298;BME280;28892;55.640;37.532;2024-03-29T02:44:01;97866.25;;;6.51;50.19
43298;BME280;28892;55.640;37.532;2024-03-29T02:46:30;97856.84;;;6.63;49.98
43298;BME280;28892;55.640;37.532;2024-03-29T02:49:05;97859.03;;;6.38;50.52
43298;BME280;28892;55.640;37.532;2024-03-29T02:51:34;97853.09;;;6.29;51.36
43298;BME280;28892;55.640;37.532;2024-03-29T02:53:59;97851.03;;;6.24;51.07
43298;BME280;28892;55.640;37.532;2024-03-29T02:56:32;97843.81;;;6.33;50.75
43298;BME280;28892;55.640;37.532;2024-03-29T02:59:01;97833.13;;;6.63;49.65
43298;BME280;28892;55.640;37.532;2024-03-29T03:01:32;97835.72;;;6.85;49.32
43298;BME280;28892;55.640;37.532;2024-03-29T03:04:01;97833.59;;;7.02;48.68
43298;BME280;28892;55.640;37.532;2024-03-29T03:06:26;97824.59;;;6.90;49.43
43298;BME280;28892;55.640;37.532;2024-03-29T03:08:52;97822.47;;;6.50;50.33
43298;BME280;28892;55.640;37.532;2024-03-29T03:11:36;97821.13;;;5.95;51.73
43298;BME280;28892;55.640;37.532;2024-03-29T03:14:02;97823.19;;;6.15;51.42
43298;BME280;28892;55.640;37.532;2024-03-29T03:16:27;97815.34;;;5.85;52.55
43298;BME280;28892;55.640;37.532;2024-03-29T03:18:56;97816.91;;;5.79;52.76
43298;BME280;28892;55.640;37.532;2024-03-29T03:21:34;97814.66;;;6.13;51.76
43298;BME280;28892;55.640;37.532;2024-03-29T03:24:03;97806.69;;;6.50;50.26
43298;BME280;28892;55.640;37.532;2024-03-29T03:26:32;97803.44;;;6.26;51.57
43298;BME280;28892;55.640;37.532;2024-03-29T03:29:00;97803.94;;;6.36;51.21
43298;BME280;28892;55.640;37.532;2024-03-29T03:31:25;97799.31;;;6.67;49.57
43298;BME280;28892;55.640;37.532;2024-03-29T03:33:51;97800.78;;;6.48;50.70
43298;BME280;28892;55.640;37.532;2024-03-29T03:36:16;97806.69;;;6.50;50.69
43298;BME280;28892;55.640;37.532;2024-03-29T03:38:43;97806.25;;;6.24;51.49
43298;BME280;28892;55.640;37.532;2024-03-29T03:41:11;97803.44;;;6.48;50.27
43298;BME280;28892;55.640;37.532;2024-03-29T03:43:41;97796.84;;;6.65;50.08
43298;BME280;28892;55.640;37.532;2024-03-29T03:46:06;97799.13;;;6.68;49.84
43298;BME280;28892;55.640;37.532;2024-03-29T03:48:32;97790.53;;;6.60;50.56
43298;BME280;28892;55.640;37.532;2024-03-29T03:50:57;97790.72;;;6.87;49.42
43298;BME280;28892;55.640;37.532;2024-03-29T03:53:24;97790.81;;;6.71;49.83
43298;BME280;28892;55.640;37.532;2024-03-29T03:55:50;97787.63;;;6.76;49.60
43298;BME280;28892;55.640;37.532;2024-03-29T03:58:15;97788.22;;;6.78;50.09
43298;BME280;28892;55.640;37.532;2024-03-29T04:00:41;97777.63;;;7.00;49.08
43298;BME280;28892;55.640;37.532;2024-03-29T04:03:07;97783.00;;;6.85;49.92
43298;BME280;28892;55.640;37.532;2024-03-29T04:05:32;97766.59;;;6.90;49.64
43298;BME280;28892;55.640;37.532;2024-03-29T04:07:58;97759.31;;;7.34;48.07
43298;BME280;28892;55.640;37.532;2024-03-29T04:10:25;97763.72;;;7.20;48.65
43298;BME280;28892;55.640;37.532;2024-03-29T04:12:51;97759.34;;;6.98;49.51
43298;BME280;28892;55.640;37.532;2024-03-29T04:15:17;97765.50;;;7.12;49.13
43298;BME280;28892;55.640;37.532;2024-03-29T04:17:42;97760.81;;;6.73;50.13
43298;BME280;28892;55.640;37.532;2024-03-29T04:22:57;97758.38;;;6.99;49.36
43298;BME280;28892;55.640;37.532;2024-03-29T04:25:23;97757.28;;;7.36;48.75
43298;BME280;28892;55.640;37.532;2024-03-29T04:27:51;97753.19;;;7.20;48.98
43298;BME280;28892;55.640;37.532;2024-03-29T04:30:17;97760.53;;;7.31;48.71
43298;BME280;28892;55.640;37.532;2024-03-29T04:32:42;97744.97;;;7.50;48.24
43298;BME280;28892;55.640;37.532;2024-03-29T04:35:08;97740.31;;;7.59;47.69
43298;BME280;28892;55.640;37.532;2024-03-29T04:37:41;97729.50;;;7.47;48.17
43298;BME280;28892;55.640;37.532;2024-03-29T04:40:39;97727.69;;;6.92;49.80
43298;BME280;28892;55.640;37.532;2024-03-29T04:43:06;97720.13;;;7.24;48.98
43298;BME280;28892;55.640;37.532;2024-03-29T04:45:32;97709.00;;;7.42;48.41
43298;BME280;28892;55.640;37.532;2024-03-29T04:47:58;97712.38;;;7.91;47.09
43298;BME280;28892;55.640;37.532;2024-03-29T04:50:34;97707.09;;;8.11;46.56
43298;BME280;28892;55.640;37.532;2024-03-29T04:53:09;97701.97;;;8.23;46.87
43298;BME280;28892;55.640;37.532;2024-03-29T04:55:34;97709.53;;;8.27;46.50
43298;BME280;28892;55.640;37.532;2024-03-29T04:58:06;97701.38;;;8.21;46.48
43298;BME280;28892;55.640;37.532;2024-03-29T05:00:37;97690.59;;;8.36;46.47
43298;BME280;28892;55.640;37.532;2024-03-29T05:03:26;97690.59;;;8.43;46.30
43298;BME280;28892;55.640;37.532;2024-03-29T05:05:54;97677.59;;;8.48;46.17
43298;BME280;28892;55.640;37.532;2024-03-29T05:08:20;97658.69;;;8.45;46.09
43298;BME280;28892;55.640;37.532;2024-03-29T05:10:48;97673.13;;;8.42;46.23
43298;BME280;28892;55.640;37.532;2024-03-29T05:13:22;97670.06;;;8.45;46.27
43298;BME280;28892;55.640;37.532;2024-03-29T05:15:51;97659.88;;;8.49;45.88
43298;BME280;28892;55.640;37.532;2024-03-29T05:18:25;97670.88;;;8.52;46.09
43298;BME280;28892;55.640;37.532;2024-03-29T05:21:01;97669.44;;;8.50;46.15
43298;BME280;28892;55.640;37.532;2024-03-29T05:23:27;97680.66;;;8.59;45.71
43298;BME280;28892;55.640;37.532;2024-03-29T05:25:55;97665.97;;;8.70;45.63
43298;BME280;28892;55.640;37.532;2024-03-29T05:28:24;97678.81;;;8.59;45.51
43298;BME280;28892;55.640;37.532;2024-03-29T05:30:49;97673.31;;;8.61;45.71
43298;BME280;28892;55.640;37.532;2024-03-29T05:33:15;97673.31;;;8.61;45.49
43298;BME280;28892;55.640;37.532;2024-03-29T05:35:42;97669.66;;;8.62;45.58
43298;BME280;28892;55.640;37.532;2024-03-29T05:38:10;97669.59;;;8.82;45.51
43298;BME280;28892;55.640;37.532;2024-03-29T05:40:36;97666.00;;;8.63;45.59
43298;BME280;28892;55.640;37.532;2024-03-29T05:43:15;97663.47;;;8.88;45.39
43298;BME280;28892;55.640;37.532;2024-03-29T05:45:41;97680.03;;;8.36;46.10
43298;BME280;28892;55.640;37.532;2024-03-29T05:48:07;97673.34;;;8.14;46.79
43298;BME280;28892;55.640;37.532;2024-03-29T05:50:32;97684.34;;;7.97;47.51
43298;BME280;28892;55.640;37.532;2024-03-29T05:53:01;97669.09;;;7.86;47.92
43298;BME280;28892;55.640;37.532;2024-03-29T05:55:26;97673.38;;;7.93;47.72
43298;BME280;28892;55.640;37.532;2024-03-29T05:57:55;97664.53;;;7.19;49.22
43298;BME280;28892;55.640;37.532;2024-03-29T06:00:21;97672.66;;;6.68;50.92
43298;BME280;28892;55.640;37.532;2024-03-29T06:02:47;97673.88;;;6.73;50.96
43298;BME280;28892;55.640;37.532;2024-03-29T06:05:14;97684.03;;;7.38;48.84
43298;BME280;28892;55.640;37.532;2024-03-29T06:07:40;97671.53;;;7.60;48.23
43298;BME280;28892;55.640;37.532;2024-03-29T06:10:07;97673.75;;;7.90;47.83
43298;BME280;28892;55.640;37.532;2024-03-29T06:12:34;97672.34;;;7.94;47.50
43298;BME280;28892;55.640;37.532;2024-03-29T06:15:01;97655.06;;;8.05;46.94
43298;BME280;28892;55.640;37.532;2024-03-29T06:18:05;97663.97;;;7.50;48.54
43298;BME280;28892;55.640;37.532;2024-03-29T06:20:30;97665.16;;;7.34;49.06
43298;BME280;28892;55.640;37.532;2024-03-29T06:22:57;97665.16;;;7.41;48.89
43298;BME280;28892;55.640;37.532;2024-03-29T06:25:23;97678.94;;;7.23;49.30
43298;BME280;28892;55.640;37.532;2024-03-29T06:27:48;97673.66;;;7.23;49.37
43298;BME280;28892;55.640;37.532;2024-03-29T06:30:15;97662.19;;;7.85;48.17
43298;BME280;28892;55.640;37.532;2024-03-29T06:32:45;97655.47;;;8.29;46.87
43298;BME280;28892;55.640;37.532;2024-03-29T06:35:11;97660.56;;;8.04;47.39
43298;BME280;28892;55.640;37.532;2024-03-29T06:37:38;97662.00;;;7.73;48.30
43298;BME280;28892;55.640;37.532;2024-03-29T06:40:04;97662.22;;;7.91;47.78
43298;BME280;28892;55.640;37.532;2024-03-29T06:42:33;97671.94;;;7.84;47.82
43298;BME280;28892;55.640;37.532;2024-03-29T06:45:26;97673.31;;;7.39;49.08
43298;BME280;28892;55.640;37.532;2024-03-29T06:47:51;97673.97;;;7.82;48.15
43298;BME280;28892;55.640;37.532;2024-03-29T06:50:21;97666.44;;;7.86;48.19
43298;BME280;28892;55.640;37.532;2024-03-29T06:52:47;97654.69;;;7.81;48.48
43298;BME280;28892;55.640;37.532;2024-03-29T06:55:13;97651.84;;;7.83;48.15
43298;BME280;28892;55.640;37.532;2024-03-29T06:57:48;97655.47;;;7.62;48.76
43298;BME280;28892;55.640;37.532;2024-03-29T07:00:13;97647.56;;;8.02;47.68
43298;BME280;28892;55.640;37.532;2024-03-29T07:03:00;97652.19;;;8.34;47.30
43298;BME280;28892;55.640;37.532;2024-03-29T07:05:27;97646.75;;;8.08;47.87
43298;BME280;28892;55.640;37.532;2024-03-29T07:18:26;97645.31;;;7.52;49.49
43298;BME280;28892;55.640;37.532;2024-03-29T07:20:55;97639.03;;;8.14;47.71
43298;BME280;28892;55.640;37.532;2024-03-29T07:23:22;97645.31;;;8.13;48.00
43298;BME280;28892;55.640;37.532;2024-03-29T07:25:57;97631.31;;;8.19;47.81
43298;BME280;28892;55.640;37.532;2024-03-29T07:28:31;97630.88;;;8.29;47.49
43298;BME280;28892;55.640;37.532;2024-03-29T07:31:04;97634.34;;;8.09;48.05
43298;BME280;28892;55.640;37.532;2024-03-29T07:33:47;97630.13;;;7.81;48.86
43298;BME280;28892;55.640;37.532;2024-03-29T07:36:20;97625.63;;;8.15;48.08
43298;BME280;28892;55.640;37.532;2024-03-29T07:39:00;97623.56;;;8.24;47.66
43298;BME280;28892;55.640;37.532;2024-03-29T07:41:38;97617.44;;;8.44;47.09
43298;BME280;28892;55.640;37.532;2024-03-29T07:44:13;97604.66;;;8.41;47.54
43298;BME280;28892;55.640;37.532;2024-03-29T07:46:44;97607.47;;;8.46;47.58
43298;BME280;28892;55.640;37.532;2024-03-29T07:49:13;97618.44;;;8.49;47.09
43298;BME280;28892;55.640;37.532;2024-03-29T07:51:42;97612.31;;;8.49;47.37
43298;BME280;28892;55.640;37.532;2024-03-29T07:54:15;97605.28;;;8.16;48.33
43298;BME280;28892;55.640;37.532;2024-03-29T07:56:51;97615.44;;;8.32;48.38
43298;BME280;28892;55.640;37.532;2024-03-29T07:59:19;97619.50;;;8.35;48.49
43298;BME280;28892;55.640;37.532;2024-03-29T08:01:46;97618.44;;;8.56;47.46
43298;BME280;28892;55.640;37.532;2024-03-29T08:04:14;97616.19;;;8.39;48.74
43298;BME280;28892;55.640;37.532;2024-03-29T08:09:36;97587.50;;;8.70;48.07
43298;BME280;28892;55.640;37.532;2024-03-29T08:12:04;97576.25;;;8.82;47.89
43298;BME280;28892;55.640;37.532;2024-03-29T08:14:33;97569.47;;;8.92;47.88
43298;BME280;28892;55.640;37.532;2024-03-29T08:16:59;97573.34;;;8.51;50.50
43298;BME280;28892;55.640;37.532;2024-03-29T08:19:32;97605.56;;;7.60;52.94
43298;BME280;28892;55.640;37.532;2024-03-29T08:21:58;97598.66;;;7.73;53.57
43298;BME280;28892;55.640;37.532;2024-03-29T08:24:32;97593.34;;;8.13;51.29
43298;BME280;28892;55.640;37.532;2024-03-29T08:26:58;97597.22;;;7.70;53.82
43298;BME280;28892;55.640;37.532;2024-03-29T08:29:28;97611.63;;;7.47;53.88
43298;BME280;28892;55.640;37.532;2024-03-29T08:32:13;97610.19;;;7.31;54.55
43298;BME280;28892;55.640;37.532;2024-03-29T08:34:41;97610.38;;;7.30;54.00
43298;BME280;28892;55.640;37.532;2024-03-29T08:37:17;97612.88;;;7.65;53.57
43298;BME280;28892;55.640;37.532;2024-03-29T08:39:46;97610.00;;;7.33;54.73
43298;BME280;28892;55.640;37.532;2024-03-29T08:42:21;97587.25;;;7.86;52.04
43298;BME280;28892;55.640;37.532;2024-03-29T08:44:50;97589.88;;;8.06;51.86
43298;BME280;28892;55.640;37.532;2024-03-29T08:47:38;97582.19;;;7.77;52.21
43298;BME280;28892;55.640;37.532;2024-03-29T08:50:14;97589.13;;;7.65;52.85
43298;BME280;28892;55.640;37.532;2024-03-29T08:52:43;97597.00;;;7.24;54.49
43298;BME280;28892;55.640;37.532;2024-03-29T08:55:13;97591.31;;;7.41;54.48
43298;BME280;28892;55.640;37.532;2024-03-29T08:57:46;97592.66;;;6.96;54.99
43298;BME280;28892;55.640;37.532;2024-03-29T09:00:12;97588.06;;;7.52;53.10
43298;BME280;28892;55.640;37.532;2024-03-29T09:02:38;97592.47;;;6.98;54.31
43298;BME280;28892;55.640;37.532;2024-03-29T09:05:07;97592.34;;;7.60;52.71
43298;BME280;28892;55.640;37.532;2024-03-29T09:07:35;97585.25;;;7.54;53.29
43298;BME280;28892;55.640;37.532;2024-03-29T09:10:06;97593.16;;;7.27;53.87
43298;BME280;28892;55.640;37.532;2024-03-29T09:12:33;97589.31;;;7.50;52.80
43298;BME280;28892;55.640;37.532;2024-03-29T09:15:05;97566.53;;;7.82;52.20
43298;BME280;28892;55.640;37.532;2024-03-29T09:17:46;97575.59;;;8.27;50.75
43298;BME280;28892;55.640;37.532;2024-03-29T09:20:12;97574.81;;;8.27;50.23
43298;BME280;28892;55.640;37.532;2024-03-29T09:22:40;97583.00;;;7.51;52.45
43298;BME280;28892;55.640;37.532;2024-03-29T09:25:09;97569.81;;;7.64;52.81
43298;BME280;28892;55.640;37.532;2024-03-29T09:27:46;97572.19;;;8.06;51.12
43298;BME280;28892;55.640;37.532;2024-03-29T09:30:36;97567.78;;;7.33;52.62
43298;BME280;28892;55.640;37.532;2024-03-29T09:33:02;97572.88;;;7.54;52.63
43298;BME280;28892;55.640;37.532;2024-03-29T09:35:36;97573.25;;;7.51;52.80
43298;BME280;28892;55.640;37.532;2024-03-29T09:38:05;97566.78;;;7.27;53.59
43298;BME280;28892;55.640;37.532;2024-03-29T09:40:31;97569.75;;;6.97;54.32
43298;BME280;28892;55.640;37.532;2024-03-29T09:42:59;97579.66;;;6.88;54.85
43298;BME280;28892;55.640;37.532;2024-03-29T09:45:33;97572.81;;;7.01;54.77
43298;BME280;28892;55.640;37.532;2024-03-29T09:48:03;97569.41;;;7.34;54.35
43298;BME280;28892;55.640;37.532;2024-03-29T09:50:30;97550.28;;;6.98;54.50
43298;BME280;28892;55.640;37.532;2024-03-29T09:52:56;97566.16;;;7.32;53.95
43298;BME280;28892;55.640;37.532;2024-03-29T09:55:23;97565.53;;;7.77;52.34
43298;BME280;28892;55.640;37.532;2024-03-29T09:57:49;97562.69;;;7.92;52.09
43298;BME280;28892;55.640;37.532;2024-03-29T10:00:14;97557.66;;;7.50;53.70
43298;BME280;28892;55.640;37.532;2024-03-29T10:02:40;97560.88;;;7.92;52.51
43298;BME280;28892;55.640;37.532;2024-03-29T10:05:11;97559.53;;;8.35;51.21
43298;BME280;28892;55.640;37.532;2024-03-29T10:07:38;97552.75;;;8.60;50.79
43298;BME280;28892;55.640;37.532;2024-03-29T10:10:05;97555.59;;;8.58;51.10
43298;BME280;28892;55.640;37.532;2024-03-29T10:12:31;97534.75;;;9.14;49.44
43298;BME280;28892;55.640;37.532;2024-03-29T10:14:57;97541.13;;;9.06;49.55
43298;BME280;28892;55.640;37.532;2024-03-29T10:17:47;97538.72;;;8.59;50.60
43298;BME280;28892;55.640;37.532;2024-03-29T10:20:17;97543.84;;;8.93;49.84
43298;BME280;28892;55.640;37.532;2024-03-29T10:22:46;97540.75;;;9.28;49.25
43298;BME280;28892;55.640;37.532;2024-03-29T10:25:13;97542.72;;;8.75;50.19
43298;BME280;28892;55.640;37.532;2024-03-29T10:27:39;97544.47;;;8.43;51.30
43298;BME280;28892;55.640;37.532;2024-03-29T10:30:11;97529.97;;;8.65;50.54
43298;BME280;28892;55.640;37.532;2024-03-29T10:32:45;97528.75;;;8.61;50.38
43298;BME280;28892;55.640;37.532;2024-03-29T10:35:14;97532.94;;;8.83;50.67
43298;BME280;28892;55.640;37.532;2024-03-29T10:37:42;97528.06;;;9.37;48.91
43298;BME280;28892;55.640;37.532;2024-03-29T10:40:08;97520.09;;;9.44;48.92
43298;BME280;28892;55.640;37.532;2024-03-29T10:42:36;97525.81;;;9.41;48.92
43298;BME280;28892;55.640;37.532;2024-03-29T10:45:07;97513.47;;;8.70;50.48
43298;BME280;28892;55.640;37.532;2024-03-29T10:47:34;97521.25;;;7.86;52.61
43298;BME280;28892;55.640;37.532;2024-03-29T10:50:00;97503.25;;;8.28;52.15
43298;BME280;28892;55.640;37.532;2024-03-29T10:52:28;97515.28;;;8.70;51.53
43298;BME280;28892;55.640;37.532;2024-03-29T10:55:11;97510.59;;;8.78;50.49
43298;BME280;28892;55.640;37.532;2024-03-29T11:01:05;97512.13;;;8.93;50.65
43298;BME280;28892;55.640;37.532;2024-03-29T11:03:58;97501.06;;;8.71;51.26
43298;BME280;28892;55.640;37.532;2024-03-29T11:06:46;97506.59;;;9.01;50.91
43298;BME280;28892;55.640;37.532;2024-03-29T11:09:15;97505.72;;;9.58;49.41
43298;BME280;28892;55.640;37.532;2024-03-29T11:11:54;97498.81;;;9.57;49.46
43298;BME280;28892;55.640;37.532;2024-03-29T11:14:34;97507.31;;;10.03;48.83
43298;BME280;28892;55.640;37.532;2024-03-29T11:17:03;97497.13;;;10.56;47.36
43298;BME280;28892;55.640;37.532;2024-03-29T11:19:29;97508.94;;;10.42;47.91
43298;BME280;28892;55.640;37.532;2024-03-29T11:21:57;97504.41;;;10.92;46.46
43298;BME280;28892;55.640;37.532;2024-03-29T11:24:23;97503.84;;;11.01;47.07
43298;BME280;28892;55.640;37.532;2024-03-29T11:26:49;97493.81;;;12.23;45.04
43298;BME280;28892;55.640;37.532;2024-03-29T11:29:24;97498.94;;;11.53;45.33
43298;BME280;28892;55.640;37.532;2024-03-29T11:31:56;97491.78;;;11.89;45.44
43298;BME280;28892;55.640;37.532;2024-03-29T11:34:22;97493.38;;;12.55;43.79
43298;BME280;28892;55.640;37.532;2024-03-29T11:36:48;97490.28;;;12.75;43.41
43298;BME280;28892;55.640;37.532;2024-03-29T11:39:20;97489.34;;;12.52;43.53
43298;BME280;28892;55.640;37.532;2024-03-29T11:41:47;97487.25;;;12.01;44.86
43298;BME280;28892;55.640;37.532;2024-03-29T11:44:14;97492.47;;;11.84;45.00
43298;BME280;28892;55.640;37.532;2024-03-29T11:46:40;97488.00;;;11.73;45.43
43298;BME280;28892;55.640;37.532;2024-03-29T11:49:05;97484.50;;;11.72;45.95
43298;BME280;28892;55.640;37.532;2024-03-29T11:51:32;97492.19;;;12.22;44.63
43298;BME280;28892;55.640;37.532;2024-03-29T11:54:09;97476.88;;;12.70;44.50
43298;BME280;28892;55.640;37.532;2024-03-29T11:56:35;97475.94;;;12.47;44.79
43298;BME280;28892;55.640;37.532;2024-03-29T11:59:03;97471.00;;;12.68;44.73
43298;BME280;28892;55.640;37.532;2024-03-29T12:01:28;97489.88;;;12.83;44.06
43298;BME280;28892;55.640;37.532;2024-03-29T12:03:55;97474.72;;;13.47;43.73
43298;BME280;28892;55.640;37.532;2024-03-29T12:06:22;97478.94;;;12.80;44.24
43298;BME280;28892;55.640;37.532;2024-03-29T12:08:48;97477.53;;;12.60;44.79
43298;BME280;28892;55.640;37.532;2024-03-29T12:11:17;97471.69;;;12.46;44.75
43298;BME280;28892;55.640;37.532;2024-03-29T12:13:58;97486.69;;;12.52;45.69
43298;BME280;28892;55.640;37.532;2024-03-29T12:16:45;97476.88;;;13.16;44.58
43298;BME280;28892;55.640;37.532;2024-03-29T12:19:24;97499.03;;;12.88;44.20
43298;BME280;28892;55.640;37.532;2024-03-29T12:22:13;97497.22;;;12.76;44.75
43298;BME280;28892;55.640;37.532;2024-03-29T12:24:57;97496.56;;;12.69;45.01
43298;BME280;28892;55.640;37.532;2024-03-29T12:30:22;97483.56;;;11.91;46.97
43298;BME280;28892;55.640;37.532;2024-03-29T12:35:51;97482.53;;;13.54;43.79
43298;BME280;28892;55.640;37.532;2024-03-29T12:38:29;97486.56;;;13.57;43.30
43298;BME280;28892;55.640;37.532;2024-03-29T12:41:03;97477.22;;;13.76;43.15
43298;BME280;28892;55.640;37.532;2024-03-29T12:43:39;97482.44;;;13.32;44.21
43298;BME280;28892;55.640;37.532;2024-03-29T12:46:08;97489.09;;;12.54;45.81
43298;BME280;28892;55.640;37.532;2024-03-29T12:48:36;97490.16;;;12.82;45.34
43298;BME280;28892;55.640;37.532;2024-03-29T12:51:37;97474.22;;;13.16;44.78
43298;BME280;28892;55.640;37.532;2024-03-29T12:54:55;97475.31;;;12.86;45.67
43298;BME280;28892;55.640;37.532;2024-03-29T12:57:45;97474.75;;;12.55;46.42
43298;BME280;28892;55.640;37.532;2024-03-29T13:03:38;97477.44;;;13.18;45.42
43298;BME280;28892;55.640;37.532;2024-03-29T13:06:17;97468.38;;;12.85;46.04
43298;BME280;28892;55.640;37.532;2024-03-29T13:08:46;97470.28;;;12.73;46.37
43298;BME280;28892;55.640;37.532;2024-03-29T13:11:37;97466.03;;;12.42;46.99
43298;BME280;28892;55.640;37.532;2024-03-29T13:14:10;97468.97;;;12.58;46.88
43298;BME280;28892;55.640;37.532;2024-03-29T13:16:36;97465.00;;;12.61;46.87
43298;BME280;28892;55.640;37.532;2024-03-29T13:19:02;97463.06;;;13.02;45.85
43298;BME280;28892;55.640;37.532;2024-03-29T13:22:00;97467.22;;;13.44;45.30
43298;BME280;28892;55.640;37.532;2024-03-29T13:24:29;97471.53;;;13.33;45.63
43298;BME280;28892;55.640;37.532;2024-03-29T13:26:55;97453.81;;;13.05;45.73
43298;BME280;28892;55.640;37.532;2024-03-29T13:29:51;97455.00;;;12.80;46.57
43298;BME280;28892;55.640;37.532;2024-03-29T13:32:20;97465.41;;;13.16;45.63
43298;BME280;28892;55.640;37.532;2024-03-29T13:34:46;97473.81;;;13.07;45.79
43298;BME280;28892;55.640;37.532;2024-03-29T13:37:15;97470.38;;;12.78;46.65
43298;BME280;28892;55.640;37.532;2024-03-29T13:39:41;97466.31;;;12.58;47.04
43298;BME280;28892;55.640;37.532;2024-03-29T13:42:06;97458.03;;;12.42;47.06